createdAt,value
2023-08-03T00:00:34.714Z,9.358643
2023-08-03T00:01:34.781Z,9.358496
2023-08-03T00:02:34.820Z,9.358493
2023-08-03T00:03:34.733Z,9.358528
2023-08-03T00:04:34.720Z,9.358459
2023-08-03T00:05:34.663Z,9.358520
2023-08-03T00:06:34.764Z,9.358562
2023-08-03T00:07:34.628Z,9.358606
2023-08-03T00:08:34.641Z,9.358666
2023-08-03T00:09:34.625Z,9.358651
2023-08-03T00:10:34.597Z,9.358627
2023-08-03T00:11:34.560Z,9.358659
2023-08-03T00:12:35.556Z,9.358597
2023-08-03T00:13:34.565Z,9.358558
2023-08-03T00:14:34.531Z,9.358566
2023-08-03T00:15:34.561Z,9.358575
2023-08-03T00:16:34.531Z,9.358578
2023-08-03T00:17:34.534Z,9.358540
2023-08-03T00:18:34.483Z,9.358558
2023-08-03T00:19:34.486Z,9.358566
2023-08-03T00:20:34.483Z,9.358541
2023-08-03T00:21:34.464Z,9.358600
2023-08-03T00:22:34.499Z,9.358585
2023-08-03T00:23:34.433Z,9.358539
2023-08-03T00:24:34.406Z,9.358459
2023-08-03T00:25:34.407Z,9.358526
2023-08-03T00:26:34.408Z,9.358520
2023-08-03T00:27:34.410Z,9.358545
2023-08-03T00:28:34.390Z,9.358550
2023-08-03T00:29:34.348Z,9.358591
2023-08-03T00:30:34.345Z,9.358593
2023-08-03T00:31:34.427Z,9.358590
2023-08-03T00:32:34.328Z,9.358550
2023-08-03T00:33:35.335Z,9.358575
2023-08-03T00:34:34.281Z,9.358576
2023-08-03T00:35:34.293Z,9.358655
2023-08-03T00:36:34.264Z,9.358677
2023-08-03T00:37:34.262Z,9.358660
2023-08-03T00:38:34.266Z,9.358620
2023-08-03T00:39:34.296Z,9.358552
2023-08-03T00:40:34.245Z,9.358549
2023-08-03T00:41:34.228Z,9.358517
2023-08-03T00:42:34.289Z,9.358508
2023-08-03T00:43:34.219Z,9.358541
2023-08-03T00:44:34.299Z,9.358534
2023-08-03T00:45:34.277Z,9.358549
2023-08-03T00:46:34.294Z,9.358560
2023-08-03T00:47:34.152Z,9.358541
2023-08-03T00:48:34.147Z,9.358530
2023-08-03T00:49:34.125Z,9.358548
2023-08-03T00:50:34.127Z,9.358518
2023-08-03T00:51:34.096Z,9.358560
2023-08-03T00:52:34.163Z,9.358556
2023-08-03T00:53:34.085Z,9.358530
2023-08-03T00:54:34.043Z,9.358536
2023-08-03T00:55:34.082Z,9.358539
2023-08-03T00:56:34.063Z,9.358598
2023-08-03T00:57:34.024Z,9.358576
2023-08-03T00:58:34.008Z,9.358576
2023-08-03T00:59:34.010Z,9.358633
2023-08-03T01:00:34.023Z,9.358543
2023-08-03T01:01:33.969Z,9.358539
2023-08-03T01:02:34.146Z,9.358544
2023-08-03T01:03:33.953Z,9.358579
2023-08-03T01:04:33.929Z,9.358580
2023-08-03T01:05:33.946Z,9.358589
2023-08-03T01:06:33.959Z,9.358635
2023-08-03T01:07:33.906Z,9.358606
2023-08-03T01:08:33.921Z,9.358592
2023-08-03T01:09:33.871Z,9.358540
2023-08-03T01:10:33.952Z,9.358554
2023-08-03T01:11:33.852Z,9.358652
2023-08-03T01:12:33.847Z,9.358665
2023-08-03T01:13:33.829Z,9.358616
2023-08-03T01:14:33.819Z,9.358609
2023-08-03T01:15:33.838Z,9.358574
2023-08-03T01:16:33.803Z,9.358568
2023-08-03T01:17:33.841Z,9.358594
2023-08-03T01:18:33.782Z,9.358634
2023-08-03T01:19:33.762Z,9.358601
2023-08-03T01:20:33.750Z,9.358552
2023-08-03T01:21:33.740Z,9.358578
2023-08-03T01:22:33.720Z,9.358620
2023-08-03T01:23:33.716Z,9.358634
2023-08-03T01:24:33.709Z,9.358616
2023-08-03T01:25:33.722Z,9.358602
2023-08-03T01:26:33.687Z,9.358584
2023-08-03T01:27:33.661Z,9.358616
2023-08-03T01:28:33.671Z,9.358578
2023-08-03T01:29:33.630Z,9.358582
2023-08-03T01:30:33.730Z,9.358546
2023-08-03T01:31:33.660Z,9.358564
2023-08-03T01:32:33.650Z,9.358552
2023-08-03T01:33:33.627Z,9.358536
2023-08-03T01:34:33.581Z,9.358540
2023-08-03T01:35:33.599Z,9.358562
2023-08-03T01:36:33.581Z,9.358582
2023-08-03T01:37:33.550Z,9.358559
2023-08-03T01:38:33.544Z,9.358573
2023-08-03T01:39:33.543Z,9.358574
2023-08-03T01:40:33.516Z,9.358597
2023-08-03T01:41:33.515Z,9.358574
2023-08-03T01:42:33.502Z,9.358537
2023-08-03T01:43:33.491Z,9.358588
2023-08-03T01:44:33.454Z,9.358589
2023-08-03T01:45:33.449Z,9.358555
2023-08-03T01:46:33.481Z,9.358588
2023-08-03T01:48:05.338Z,9.358560
2023-08-03T01:48:34.063Z,9.358560
2023-08-03T01:49:33.445Z,9.358516
2023-08-03T01:50:33.401Z,9.358512
2023-08-03T01:51:33.428Z,9.358515
2023-08-03T01:52:33.404Z,9.358550
2023-08-03T01:53:33.385Z,9.358536
2023-08-03T01:54:33.396Z,9.358514
2023-08-03T01:55:33.378Z,9.358530
2023-08-03T01:56:33.337Z,9.358567
2023-08-03T01:57:33.325Z,9.358599
2023-08-03T01:58:33.313Z,9.358571
2023-08-03T01:59:33.320Z,9.358534
2023-08-03T02:00:33.296Z,9.358593
2023-08-03T02:01:33.309Z,9.358650
2023-08-03T02:02:33.276Z,9.358621
2023-08-03T02:03:33.238Z,9.358684
2023-08-03T02:04:33.274Z,9.358598
2023-08-03T02:05:33.253Z,9.358575
2023-08-03T02:06:33.238Z,9.358563
2023-08-03T02:07:33.193Z,9.358591
2023-08-03T02:08:33.180Z,9.358590
2023-08-03T02:09:33.203Z,9.358609
2023-08-03T02:10:33.159Z,9.358649
2023-08-03T02:11:33.158Z,9.358614
2023-08-03T02:12:33.158Z,9.358552
2023-08-03T02:13:33.140Z,9.358582
2023-08-03T02:14:33.141Z,9.358586
2023-08-03T02:15:33.141Z,9.358594
2023-08-03T02:16:33.146Z,9.358591
2023-08-03T02:17:33.071Z,9.358584
2023-08-03T02:18:33.105Z,9.358642
2023-08-03T02:19:33.069Z,9.358614
2023-08-03T02:20:33.058Z,9.358589
2023-08-03T02:21:33.072Z,9.358605
2023-08-03T02:22:33.008Z,9.358572
2023-08-03T02:23:33.040Z,9.358611
2023-08-03T02:24:33.003Z,9.358645
2023-08-03T02:25:32.990Z,9.358629
2023-08-03T02:26:33.031Z,9.358639
2023-08-03T02:27:32.950Z,9.358619
2023-08-03T02:28:32.976Z,9.358613
2023-08-03T02:29:32.957Z,9.358619
2023-08-03T02:30:32.928Z,9.358591
2023-08-03T02:31:32.950Z,9.358564
2023-08-03T02:32:32.936Z,9.358569
2023-08-03T02:33:32.951Z,9.358542
2023-08-03T02:34:32.870Z,9.358568
2023-08-03T02:35:32.896Z,9.358562
2023-08-03T02:36:32.907Z,9.358541
2023-08-03T02:37:32.844Z,9.358530
2023-08-03T02:38:32.847Z,9.358539
2023-08-03T02:39:32.848Z,9.358572
2023-08-03T02:40:32.835Z,9.358551
2023-08-03T02:41:32.865Z,9.358562
2023-08-03T02:42:32.804Z,9.358588
2023-08-03T02:43:32.758Z,9.358581
2023-08-03T02:44:32.785Z,9.358570
2023-08-03T02:45:32.772Z,9.358540
2023-08-03T02:46:32.761Z,9.358592
2023-08-03T02:47:32.784Z,9.358613
2023-08-03T02:48:32.710Z,9.358595
2023-08-03T02:49:32.773Z,9.358603
2023-08-03T02:50:32.696Z,9.358590
2023-08-03T02:51:32.739Z,9.358533
2023-08-03T02:52:32.674Z,9.358531
2023-08-03T02:53:32.698Z,9.358596
2023-08-03T02:54:32.664Z,9.358685
2023-08-03T02:55:32.654Z,9.358648
2023-08-03T02:56:32.629Z,9.358655
2023-08-03T02:57:32.677Z,9.358601
2023-08-03T02:58:32.592Z,9.358634
2023-08-03T02:59:32.599Z,9.358654
2023-08-03T03:00:32.608Z,9.358644
2023-08-03T03:01:32.643Z,9.358638
2023-08-03T03:02:32.644Z,9.358663
2023-08-03T03:03:32.648Z,9.358613
2023-08-03T03:04:32.561Z,9.358554
2023-08-03T03:05:32.534Z,9.358560
2023-08-03T03:06:32.554Z,9.358529
2023-08-03T03:07:32.486Z,9.358560
2023-08-03T03:08:32.512Z,9.358524
2023-08-03T03:09:32.531Z,9.358548
2023-08-03T03:10:32.467Z,9.358579
2023-08-03T03:11:32.456Z,9.358586
2023-08-03T03:12:32.504Z,9.358571
2023-08-03T03:13:32.474Z,9.358565
2023-08-03T03:14:32.416Z,9.358547
2023-08-03T03:15:32.455Z,9.358476
2023-08-03T03:16:32.447Z,9.358518
2023-08-03T03:17:32.456Z,9.358515
2023-08-03T03:18:32.382Z,9.358536
2023-08-03T03:19:32.410Z,9.358580
2023-08-03T03:20:32.412Z,9.358548
2023-08-03T03:21:32.329Z,9.358547
2023-08-03T03:22:32.341Z,9.358608
2023-08-03T03:23:32.380Z,9.358587
2023-08-03T03:24:32.315Z,9.358577
2023-08-03T03:25:32.288Z,9.358578
2023-08-03T03:26:32.309Z,9.358618
2023-08-03T03:27:32.310Z,9.358639
2023-08-03T03:28:32.289Z,9.358607
2023-08-03T03:29:32.257Z,9.358624
2023-08-03T03:30:32.264Z,9.358635
2023-08-03T03:31:32.256Z,9.358608
2023-08-03T03:32:32.307Z,9.358577
2023-08-03T03:33:32.226Z,9.358606
2023-08-03T03:34:32.195Z,9.358553
2023-08-03T03:35:32.178Z,9.358529
2023-08-03T03:36:32.181Z,9.358538
2023-08-03T03:37:32.186Z,9.358540
2023-08-03T03:38:32.143Z,9.358530
2023-08-03T03:39:32.163Z,9.358549
2023-08-03T03:40:32.142Z,9.358562
2023-08-03T03:41:32.120Z,9.358571
2023-08-03T03:42:32.138Z,9.358582
2023-08-03T03:43:32.117Z,9.358566
2023-08-03T03:44:32.107Z,9.358557
2023-08-03T03:45:32.070Z,9.358648
2023-08-03T03:46:32.083Z,9.358632
2023-08-03T03:47:32.138Z,9.358566
2023-08-03T03:48:32.127Z,9.358600
2023-08-03T03:49:32.085Z,9.358595
2023-08-03T03:50:32.024Z,9.358539
2023-08-03T03:51:31.982Z,9.358538
2023-08-03T03:52:32.026Z,9.358543
2023-08-03T03:53:31.998Z,9.358584
2023-08-03T03:54:31.934Z,9.358541
2023-08-03T03:55:31.968Z,9.358595
2023-08-03T03:56:31.969Z,9.358597
2023-08-03T03:57:31.925Z,9.358609
2023-08-03T03:58:31.917Z,9.358610
2023-08-03T03:59:32.018Z,9.358570
2023-08-03T04:00:31.924Z,9.358564
2023-08-03T04:01:31.955Z,9.358547
2023-08-03T04:02:31.909Z,9.358510
2023-08-03T04:03:31.902Z,9.358522
2023-08-03T04:04:32.872Z,9.358569
2023-08-03T04:05:32.887Z,9.358548
2023-08-03T04:06:31.870Z,9.358454
2023-08-03T04:07:31.832Z,9.358545
2023-08-03T04:08:31.813Z,9.358534
2023-08-03T04:09:31.814Z,9.358550
2023-08-03T04:10:31.809Z,9.358552
2023-08-03T04:11:31.786Z,9.358513
2023-08-03T04:12:31.764Z,9.358503
2023-08-03T04:13:31.733Z,9.358494
2023-08-03T04:14:31.741Z,9.358524
2023-08-03T04:15:31.794Z,9.358550
2023-08-03T04:16:31.724Z,9.358512
2023-08-03T04:17:31.761Z,9.358538
2023-08-03T04:18:31.705Z,9.358548
2023-08-03T04:19:31.652Z,9.358516
2023-08-03T04:20:31.738Z,9.358601
2023-08-03T04:21:32.680Z,9.358571
2023-08-03T04:22:31.681Z,9.358511
2023-08-03T04:23:31.621Z,9.358486
2023-08-03T04:24:31.662Z,9.358545
2023-08-03T04:25:31.627Z,9.358626
2023-08-03T04:26:31.599Z,9.358575
2023-08-03T04:27:31.600Z,9.358582
2023-08-03T04:28:31.580Z,9.358611
2023-08-03T04:29:31.631Z,9.358569
2023-08-03T04:30:31.580Z,9.358529
2023-08-03T04:31:31.572Z,9.358585
2023-08-03T04:32:31.544Z,9.358631
2023-08-03T04:33:31.552Z,9.358550
2023-08-03T04:34:31.504Z,9.358564
2023-08-03T04:35:31.557Z,9.358558
2023-08-03T04:36:31.493Z,9.358598
2023-08-03T04:37:31.470Z,9.358564
2023-08-03T04:38:31.451Z,9.358585
2023-08-03T04:39:31.474Z,9.358590
2023-08-03T04:40:31.470Z,9.358577
2023-08-03T04:41:31.402Z,9.358518
2023-08-03T04:42:31.468Z,9.358532
2023-08-03T04:43:31.404Z,9.358558
2023-08-03T04:44:31.380Z,9.358562
2023-08-03T04:45:31.395Z,9.358553
2023-08-03T04:46:31.409Z,9.358597
2023-08-03T04:47:31.362Z,9.358582
2023-08-03T04:48:31.383Z,9.358623
2023-08-03T04:49:31.348Z,9.358601
2023-08-03T04:50:31.335Z,9.358581
2023-08-03T04:51:31.319Z,9.358582
2023-08-03T04:52:31.312Z,9.358655
2023-08-03T04:53:31.282Z,9.358653
2023-08-03T04:54:31.271Z,9.358592
2023-08-03T04:55:31.307Z,9.358529
2023-08-03T04:56:31.250Z,9.358513
2023-08-03T04:57:32.223Z,9.358543
2023-08-03T04:58:31.257Z,9.358460
2023-08-03T04:59:31.229Z,9.358420
2023-08-03T05:00:31.229Z,9.358457
2023-08-03T05:01:31.253Z,9.358461
2023-08-03T05:02:31.196Z,9.358458
2023-08-03T05:03:31.193Z,9.358552
2023-08-03T05:04:31.169Z,9.358579
2023-08-03T05:05:31.134Z,9.358598
2023-08-03T05:06:31.185Z,9.358649
2023-08-03T05:07:31.125Z,9.358646
2023-08-03T05:08:31.120Z,9.358575
2023-08-03T05:09:31.124Z,9.358520
2023-08-03T05:10:31.122Z,9.358495
2023-08-03T05:11:31.065Z,9.358497
2023-08-03T05:12:31.065Z,9.358538
2023-08-03T05:13:31.094Z,9.358570
2023-08-03T05:14:31.074Z,9.358605
2023-08-03T05:15:31.044Z,9.358631
2023-08-03T05:16:31.046Z,9.358562
2023-08-03T05:17:31.089Z,9.358541
2023-08-03T05:18:31.000Z,9.358523
2023-08-03T05:19:31.003Z,9.358459
2023-08-03T05:20:31.002Z,9.358538
2023-08-03T05:21:30.940Z,9.358516
2023-08-03T05:22:30.975Z,9.358410
2023-08-03T05:23:30.938Z,9.358491
2023-08-03T05:24:30.941Z,9.358603
2023-08-03T05:25:30.933Z,9.358648
2023-08-03T05:26:30.911Z,9.358619
2023-08-03T05:27:30.923Z,9.358598
2023-08-03T05:28:30.873Z,9.358488
2023-08-03T05:29:30.889Z,9.358514
2023-08-03T05:30:30.901Z,9.358555
2023-08-03T05:31:30.835Z,9.358523
2023-08-03T05:32:30.899Z,9.358501
2023-08-03T05:33:30.894Z,9.358537
2023-08-03T05:34:30.828Z,9.358540
2023-08-03T05:35:30.798Z,9.358546
2023-08-03T05:36:30.847Z,9.358522
2023-08-03T05:37:30.792Z,9.358473
2023-08-03T05:38:30.749Z,9.358454
2023-08-03T05:39:30.788Z,9.358454
2023-08-03T05:40:30.772Z,9.358512
2023-08-03T05:41:30.721Z,9.358492
2023-08-03T05:42:30.716Z,9.358489
2023-08-03T05:43:30.726Z,9.358512
2023-08-03T05:44:30.712Z,9.358471
2023-08-03T05:45:30.696Z,9.358543
2023-08-03T05:46:30.745Z,9.358553
2023-08-03T05:47:30.710Z,9.358530
2023-08-03T05:48:30.662Z,9.358478
2023-08-03T05:49:30.654Z,9.358513
2023-08-03T05:50:30.650Z,9.358495
2023-08-03T05:51:30.605Z,9.358487
2023-08-03T05:52:30.617Z,9.358498
2023-08-03T05:53:30.620Z,9.358544
2023-08-03T05:54:30.560Z,9.358507
2023-08-03T05:55:30.581Z,9.358491
2023-08-03T05:56:30.566Z,9.358522
2023-08-03T05:57:30.534Z,9.358516
2023-08-03T05:58:30.561Z,9.358523
2023-08-03T05:59:30.539Z,9.358536
2023-08-03T06:00:30.569Z,9.358553
2023-08-03T06:01:30.537Z,9.358513
2023-08-03T06:02:30.555Z,9.358497
2023-08-03T06:03:30.522Z,9.358533
2023-08-03T06:04:30.463Z,9.358546
2023-08-03T06:05:30.476Z,9.358537
2023-08-03T06:06:30.501Z,9.358509
2023-08-03T06:07:30.449Z,9.358484
2023-08-03T06:08:30.425Z,9.358473
2023-08-03T06:09:31.637Z,9.358500
2023-08-03T06:10:31.381Z,9.358478
2023-08-03T06:11:30.412Z,9.358469
2023-08-03T06:12:30.430Z,9.358508
2023-08-03T06:13:30.356Z,9.358539
2023-08-03T06:14:30.351Z,9.358603
2023-08-03T06:15:30.361Z,9.358603
2023-08-03T06:16:30.438Z,9.358601
2023-08-03T06:17:30.370Z,9.358602
2023-08-03T06:18:30.329Z,9.358552
2023-08-03T06:19:30.308Z,9.358509
2023-08-03T06:20:30.308Z,9.358462
2023-08-03T06:21:30.315Z,9.358489
2023-08-03T06:22:30.388Z,9.358505
2023-08-03T06:23:30.258Z,9.358442
2023-08-03T06:24:30.263Z,9.358413
2023-08-03T06:25:30.255Z,9.358442
2023-08-03T06:26:30.221Z,9.358438
2023-08-03T06:27:30.223Z,9.358458
2023-08-03T06:28:30.205Z,9.358485
2023-08-03T06:29:30.190Z,9.358500
2023-08-03T06:30:30.181Z,9.358514
2023-08-03T06:31:30.258Z,9.358548
2023-08-03T06:32:30.217Z,9.358511
2023-08-03T06:33:30.129Z,9.358522
2023-08-03T06:34:30.138Z,9.358460
2023-08-03T06:35:30.162Z,9.358530
2023-08-03T06:36:30.148Z,9.358571
2023-08-03T06:37:30.082Z,9.358625
2023-08-03T06:38:30.097Z,9.358559
2023-08-03T06:39:30.135Z,9.358587
2023-08-03T06:40:31.070Z,9.358575
2023-08-03T06:41:30.071Z,9.358543
2023-08-03T06:42:30.077Z,9.358520
2023-08-03T06:43:30.037Z,9.358523
2023-08-03T06:44:30.041Z,9.358477
2023-08-03T06:45:30.065Z,9.358427
2023-08-03T06:46:30.140Z,9.358465
2023-08-03T06:47:29.998Z,9.358539
2023-08-03T06:48:29.981Z,9.358547
2023-08-03T06:49:29.997Z,9.358555
2023-08-03T06:50:29.945Z,9.358592
2023-08-03T06:51:30.021Z,9.358575
2023-08-03T06:52:29.947Z,9.358556
2023-08-03T06:53:29.943Z,9.358551
2023-08-03T06:54:29.943Z,9.358561
2023-08-03T06:55:29.922Z,9.358568
2023-08-03T06:56:29.905Z,9.358535
2023-08-03T06:57:29.897Z,9.358569
2023-08-03T06:58:29.905Z,9.358559
2023-08-03T06:59:29.857Z,9.358664
2023-08-03T07:00:29.860Z,9.358598
2023-08-03T07:01:29.889Z,9.358564
2023-08-03T07:02:29.864Z,9.358568
2023-08-03T07:03:29.870Z,9.358600
2023-08-03T07:04:29.812Z,9.358566
2023-08-03T07:05:29.842Z,9.358567
2023-08-03T07:06:29.858Z,9.358582
2023-08-03T07:07:29.751Z,9.358583
2023-08-03T07:08:29.760Z,9.358565
2023-08-03T07:09:29.768Z,9.358586
2023-08-03T07:10:29.808Z,9.358577
2023-08-03T07:11:29.718Z,9.358584
2023-08-03T07:12:29.730Z,9.358583
2023-08-03T07:13:29.731Z,9.358587
2023-08-03T07:14:29.692Z,9.358550
2023-08-03T07:15:29.708Z,9.358519
2023-08-03T07:16:29.741Z,9.358500
2023-08-03T07:17:29.691Z,9.358545
2023-08-03T07:18:29.729Z,9.358583
2023-08-03T07:19:29.654Z,9.358580
2023-08-03T07:20:29.631Z,9.358542
2023-08-03T07:21:29.620Z,9.358585
2023-08-03T07:22:29.630Z,9.358557
2023-08-03T07:23:29.594Z,9.358543
2023-08-03T07:24:29.599Z,9.358541
2023-08-03T07:25:29.597Z,9.358539
2023-08-03T07:26:29.566Z,9.358537
2023-08-03T07:27:29.555Z,9.358517
2023-08-03T07:28:29.591Z,9.358530
2023-08-03T07:29:29.553Z,9.358529
2023-08-03T07:30:32.612Z,9.358546
2023-08-03T07:31:30.585Z,9.358611
2023-08-03T07:32:29.530Z,9.358521
2023-08-03T07:33:29.472Z,9.358532
2023-08-03T07:34:29.496Z,9.358513
2023-08-03T07:35:29.485Z,9.358462
2023-08-03T07:36:29.481Z,9.358520
2023-08-03T07:37:29.477Z,9.358565
2023-08-03T07:38:29.436Z,9.358631
2023-08-03T07:39:29.483Z,9.358629
2023-08-03T07:40:29.431Z,9.358553
2023-08-03T07:41:29.388Z,9.358551
2023-08-03T07:42:29.473Z,9.358537
2023-08-03T07:43:29.398Z,9.358582
2023-08-03T07:44:49.225Z,9.358562
2023-08-03T07:46:30.432Z,9.358575
2023-08-03T07:47:29.376Z,9.358536
2023-08-03T07:49:01.267Z,9.358536
2023-08-03T07:49:29.337Z,9.358549
2023-08-03T07:50:29.351Z,9.358583
2023-08-03T07:51:29.387Z,9.358594
2023-08-03T07:52:29.319Z,9.358569
2023-08-03T07:53:29.289Z,9.358598
2023-08-03T07:54:29.289Z,9.358561
2023-08-03T07:55:29.279Z,9.358542
2023-08-03T07:56:29.691Z,9.358493
2023-08-03T07:57:30.313Z,9.358512
2023-08-03T07:58:29.246Z,9.358523
2023-08-03T07:59:29.258Z,9.358552
2023-08-03T08:00:29.267Z,9.358612
2023-08-03T08:01:29.362Z,9.358586
2023-08-03T08:02:29.221Z,9.358576
2023-08-03T08:03:29.265Z,9.358553
2023-08-03T08:04:29.190Z,9.358623
2023-08-03T08:05:29.183Z,9.358622
2023-08-03T08:06:29.264Z,9.358608
2023-08-03T08:07:29.157Z,9.358589
2023-08-03T08:08:29.149Z,9.358586
2023-08-03T08:09:29.127Z,9.358585
2023-08-03T08:10:29.110Z,9.358553
2023-08-03T08:11:29.231Z,9.358527
2023-08-03T08:12:29.089Z,9.358489
2023-08-03T08:13:29.084Z,9.358525
2023-08-03T08:14:29.066Z,9.358573
2023-08-03T08:15:29.102Z,9.358558
2023-08-03T08:16:29.077Z,9.358529
2023-08-03T08:17:29.071Z,9.358540
2023-08-03T08:18:30.466Z,9.358553
2023-08-03T08:19:29.026Z,9.358558
2023-08-03T08:20:29.025Z,9.358641
2023-08-03T08:21:29.011Z,9.358683
2023-08-03T08:22:29.273Z,9.358636
2023-08-03T08:23:29.023Z,9.358602
2023-08-03T08:24:29.050Z,9.358574
2023-08-03T08:25:29.038Z,9.358559
2023-08-03T08:26:28.996Z,9.358605
2023-08-03T08:27:29.209Z,9.358648
2023-08-03T08:28:29.138Z,9.358627
2023-08-03T08:29:28.931Z,9.358571
2023-08-03T08:30:28.925Z,9.358499
2023-08-03T08:31:32.781Z,9.358584
2023-08-03T08:32:29.953Z,9.358610
2023-08-03T08:33:28.916Z,9.358596
2023-08-03T08:34:31.195Z,9.358603
2023-08-03T08:35:28.841Z,9.358609
2023-08-03T08:36:28.853Z,9.358531
2023-08-03T08:37:28.889Z,9.358500
2023-08-03T08:38:28.822Z,9.358504
2023-08-03T08:39:28.831Z,9.358533
2023-08-03T08:40:28.811Z,9.358558
2023-08-03T08:41:29.693Z,9.358562
2023-08-03T08:42:28.777Z,9.358556
2023-08-03T08:43:28.786Z,9.358543
2023-08-03T08:44:28.732Z,9.358609
2023-08-03T08:45:28.738Z,9.358583
2023-08-03T08:46:28.830Z,9.358592
2023-08-03T08:47:28.859Z,9.358565
2023-08-03T08:50:32.190Z,9.358554
2023-08-03T08:52:29.719Z,9.358582
2023-08-03T08:53:28.745Z,9.358490
2023-08-03T08:55:17.484Z,9.358507
2023-08-03T08:59:32.863Z,9.358546
2023-08-03T08:59:33.488Z,9.358549
2023-08-03T09:00:29.589Z,9.358519
2023-08-03T09:01:28.602Z,9.358504
2023-08-03T09:02:28.592Z,9.358496
2023-08-03T09:03:28.853Z,9.358507
2023-08-03T09:04:32.489Z,9.358500
2023-08-03T09:06:29.527Z,9.358488
2023-08-03T09:07:28.513Z,9.358495
2023-08-03T09:08:28.470Z,9.358475
2023-08-03T09:09:28.478Z,9.358482
2023-08-03T09:10:28.507Z,9.358500
2023-08-03T09:11:28.551Z,9.358450
2023-08-03T09:12:28.466Z,9.358505
2023-08-03T09:13:28.513Z,9.358556
2023-08-03T09:14:28.451Z,9.358497
2023-08-03T09:15:28.413Z,9.358477
2023-08-03T09:16:28.418Z,9.358485
2023-08-03T09:17:28.487Z,9.358483
2023-08-03T09:18:28.468Z,9.358504
2023-08-03T09:19:28.354Z,9.358493
2023-08-03T09:24:35.220Z,9.358533
2023-08-03T09:25:40.312Z,9.358599
2023-08-03T09:29:29.258Z,9.358574
2023-08-03T09:30:36.739Z,9.358572
2023-08-03T09:31:30.484Z,9.358573
2023-08-03T09:32:29.337Z,9.358546
2023-08-03T09:36:31.945Z,9.358534
2023-08-03T09:38:29.191Z,9.358611
2023-08-03T09:39:31.374Z,9.358554
2023-08-03T09:40:29.114Z,9.358562
2023-08-03T09:41:28.109Z,9.358619
2023-08-03T09:44:29.072Z,9.358533
2023-08-03T09:46:29.153Z,9.358576
2023-08-03T09:47:29.929Z,9.358596
2023-08-03T09:48:29.090Z,9.358583
2023-08-03T09:49:28.042Z,9.358599
2023-08-03T09:50:28.105Z,9.358620
2023-08-03T09:51:28.002Z,9.358628
2023-08-03T09:53:29.013Z,9.358624
2023-08-03T09:54:27.994Z,9.358565
2023-08-03T09:55:27.974Z,9.358521
2023-08-03T09:56:28.026Z,9.358599
2023-08-03T09:57:27.944Z,9.358560
2023-08-03T09:58:27.922Z,9.358571
2023-08-03T09:59:27.978Z,9.358589
2023-08-03T10:00:27.955Z,9.358588
2023-08-03T10:01:27.914Z,9.358587
2023-08-03T10:02:27.936Z,9.358589
2023-08-03T10:03:27.928Z,9.358618
2023-08-03T10:04:27.887Z,9.358551
2023-08-03T10:05:27.886Z,9.358494
2023-08-03T10:06:27.886Z,9.358590
2023-08-03T10:07:27.817Z,9.358650
2023-08-03T10:08:27.805Z,9.358633
2023-08-03T10:09:27.825Z,9.358698
2023-08-03T10:10:27.857Z,9.358665
2023-08-03T10:11:27.824Z,9.358671
2023-08-03T10:12:27.772Z,9.358616
2023-08-03T10:13:27.788Z,9.358568
2023-08-03T10:14:27.760Z,9.358513
2023-08-03T10:15:27.810Z,9.358524
2023-08-03T10:16:27.791Z,9.358562
2023-08-03T10:17:27.764Z,9.358649
2023-08-03T10:18:49.484Z,9.358618
2023-08-03T10:19:29.752Z,9.358612
2023-08-03T10:20:27.689Z,9.358540
2023-08-03T10:21:27.756Z,9.358554
2023-08-03T10:22:27.664Z,9.358600
2023-08-03T10:23:27.680Z,9.358640
2023-08-03T10:24:27.669Z,9.358604
2023-08-03T10:25:27.630Z,9.358619
2023-08-03T10:26:27.632Z,9.358612
2023-08-03T10:27:27.649Z,9.358599
2023-08-03T10:28:27.619Z,9.358568
2023-08-03T10:29:27.590Z,9.358496
2023-08-03T10:30:27.636Z,9.358538
2023-08-03T10:31:27.603Z,9.358540
2023-08-03T10:32:27.616Z,9.358518
2023-08-03T10:33:27.579Z,9.358525
2023-08-03T10:34:27.557Z,9.358531
2023-08-03T10:35:27.518Z,9.358511
2023-08-03T10:36:27.684Z,9.358486
2023-08-03T10:37:27.532Z,9.358440
2023-08-03T10:38:27.527Z,9.358454
2023-08-03T10:39:27.501Z,9.358492
2023-08-03T10:40:27.518Z,9.358509
2023-08-03T10:41:27.487Z,9.358472
2023-08-03T10:42:27.513Z,9.358490
2023-08-03T10:43:27.457Z,9.358500
2023-08-03T10:44:27.487Z,9.358513
2023-08-03T10:45:27.583Z,9.358549
2023-08-03T10:49:06.554Z,9.358631
2023-08-03T10:50:06.419Z,9.358592
2023-08-03T10:51:06.392Z,9.358535
2023-08-03T10:52:06.375Z,9.358507
2023-08-03T10:53:06.367Z,9.358505
2023-08-03T10:54:06.374Z,9.358511
2023-08-03T10:55:06.360Z,9.358482
2023-08-03T10:56:06.438Z,9.358517
2023-08-03T10:57:06.384Z,9.358463
2023-08-03T10:58:06.328Z,9.358434
2023-08-03T10:59:06.330Z,9.358513
2023-08-03T11:00:06.275Z,9.358540
2023-08-03T11:01:38.545Z,9.358574
2023-08-03T11:02:06.443Z,9.358498
2023-08-03T11:03:06.396Z,9.358469
2023-08-03T11:04:07.409Z,9.358532
2023-08-03T11:05:08.639Z,9.358575
2023-08-03T11:06:07.215Z,9.358540
2023-08-03T11:07:06.276Z,9.358497
2023-08-03T11:08:06.262Z,9.358474
2023-08-03T11:09:06.202Z,9.358434
2023-08-03T11:10:06.184Z,9.358389
2023-08-03T11:11:06.231Z,9.358518
2023-08-03T11:12:06.194Z,9.358519
2023-08-03T11:13:06.147Z,9.358499
2023-08-03T11:14:06.178Z,9.358527
2023-08-03T11:15:06.169Z,9.358548
2023-08-03T11:16:06.136Z,9.358545
2023-08-03T11:17:06.126Z,9.358482
2023-08-03T11:18:06.185Z,9.358472
2023-08-03T11:19:06.100Z,9.358472
2023-08-03T11:20:06.177Z,9.358472
2023-08-03T11:21:06.088Z,9.358502
2023-08-03T11:22:06.138Z,9.358471
2023-08-03T11:23:06.155Z,9.358485
2023-08-03T11:24:06.057Z,9.358464
2023-08-03T11:25:06.032Z,9.358468
2023-08-03T11:26:06.040Z,9.358439
2023-08-03T11:27:06.040Z,9.358470
2023-08-03T11:28:06.045Z,9.358526
2023-08-03T11:29:05.989Z,9.358559
2023-08-03T11:30:05.983Z,9.358573
2023-08-03T11:31:06.027Z,9.358545
2023-08-03T11:32:06.025Z,9.358550
2023-08-03T11:33:07.050Z,9.358521
2023-08-03T11:34:05.992Z,9.358492
2023-08-03T11:35:05.990Z,9.358498
2023-08-03T11:36:05.939Z,9.358534
2023-08-03T11:37:05.945Z,9.358564
2023-08-03T11:38:05.914Z,9.358618
2023-08-03T11:39:05.884Z,9.358620
2023-08-03T11:40:05.894Z,9.358595
2023-08-03T11:41:07.103Z,9.358680
2023-08-03T11:42:06.851Z,9.358641
2023-08-03T11:43:05.887Z,9.358598
2023-08-03T11:44:05.888Z,9.358603
2023-08-03T11:45:05.831Z,9.358612
2023-08-03T11:46:05.919Z,9.358732
2023-08-03T11:47:05.851Z,9.358698
2023-08-03T11:48:05.832Z,9.358559
2023-08-03T11:49:05.791Z,9.358563
2023-08-03T11:50:05.848Z,9.358575
2023-08-03T11:51:05.783Z,9.358572
2023-08-03T11:52:05.769Z,9.358564
2023-08-03T11:53:18.729Z,9.358582
2023-08-03T11:54:07.734Z,9.358624
2023-08-03T11:55:05.722Z,9.358585
2023-08-03T11:56:05.766Z,9.358518
2023-08-03T11:57:05.766Z,9.358504
2023-08-03T11:58:05.688Z,9.358585
2023-08-03T11:59:05.767Z,9.358565
2023-08-03T12:00:05.682Z,9.358473
2023-08-03T12:01:06.106Z,9.358482
2023-08-03T12:02:05.774Z,9.358460
2023-08-03T12:03:05.734Z,9.358481
2023-08-03T12:04:14.380Z,9.358553
2023-08-03T12:05:16.403Z,9.358603
2023-08-03T12:06:10.173Z,9.358624
2023-08-03T12:08:07.134Z,9.358620
2023-08-03T12:09:06.635Z,9.358620
2023-08-03T12:10:05.620Z,9.358605
2023-08-03T12:11:05.644Z,9.358585